Time;durP1;ratioP1;P1;durP2;ratioP2;P2;SDS_P1;SDS_P2;PMS_P1;PMS_P2;Temp;Humidity;BMP_temperature;BMP_pressure;BME280_temperature;BME280_humidity;BME280_pressure;Samples;Min_cycle;Max_cycle;Signal;HPM_P1;HPM_P2
2024/04/18 00:01:41;;;;;;;24.30;10.70;;;;;;;3.66;87.59;99579.45;108148;1267;22540;-81
2024/04/18 00:04:31;;;;;;;27.60;11.90;;;;;;;3.61;87.73;99582.39;108137;1270;22564;-81
2024/04/18 00:07:25;;;;;;;22.80;11.30;;;;;;;3.59;87.71;99584.52;108268;1262;22557;-81
2024/04/18 00:10:35;;;;;;;22.60;9.30;;;;;;;3.57;87.53;99581.11;108250;1264;22565;-83
2024/04/18 00:13:26;;;;;;;22.50;10.10;;;;;;;3.57;87.68;99582.59;108299;1274;24679;-81
2024/04/18 00:16:25;;;;;;;20.40;9.10;;;;;;;3.56;87.75;99580.11;108364;1273;22631;-80
2024/04/18 00:19:14;;;;;;;;;;;;;;;3.56;87.53;99578.48;108178;1266;24212;-83
2024/04/18 00:22:19;;;;;;;20.40;8.60;;;;;;;3.56;87.54;99579.40;108379;1266;25292;-81
2024/04/18 00:25:25;;;;;;;21.00;8.40;;;;;;;3.58;87.13;99577.21;108318;1273;22486;-82
2024/04/18 00:28:17;;;;;;;20.10;7.80;;;;;;;3.59;86.87;99579.39;108336;1273;24236;-82
2024/04/18 00:31:07;;;;;;;24.80;8.70;;;;;;;3.58;86.56;99578.56;108373;1259;25363;-82
2024/04/18 00:34:16;;;;;;;;;;;;;;;3.55;86.30;99580.79;108235;1266;23443;-81
2024/04/18 00:37:10;;;;;;;21.00;9.00;;;;;;;3.52;86.31;99579.71;108275;1274;22581;-81
2024/04/18 00:40:32;;;;;;;23.40;9.20;;;;;;;3.50;86.04;99582.80;108247;1266;22987;-81
2024/04/18 00:43:41;;;;;;;20.10;8.60;;;;;;;3.46;86.00;99584.01;108265;1270;23991;-82
2024/04/18 00:46:52;;;;;;;22.20;8.70;;;;;;;3.44;85.98;99590.25;108405;1273;22604;-81
2024/04/18 00:49:54;;;;;;;22.30;8.80;;;;;;;3.42;85.90;99591.57;108354;1273;22549;-82
2024/04/18 00:53:02;;;;;;;23.40;9.20;;;;;;;3.41;85.98;99593.98;108246;1270;24372;-80
2024/04/18 00:55:54;;;;;;;22.30;8.70;;;;;;;3.39;85.83;99592.55;108299;1270;24209;-81
2024/04/18 00:59:05;;;;;;;25.10;9.30;;;;;;;3.37;85.94;99591.13;108272;1273;22753;-81
2024/04/18 01:01:57;;;;;;;23.20;8.90;;;;;;;3.35;85.91;99592.86;110574;1272;22180;-81
2024/04/18 01:04:59;;;;;;;22.90;9.50;;;;;;;3.32;86.14;99593.49;110634;1270;23008;-81
2024/04/18 01:08:05;;;;;;;25.10;9.30;;;;;;;3.31;86.39;99597.06;110684;1261;22674;-82
2024/04/18 01:11:34;;;;;;;20.70;9.20;;;;;;;3.29;86.59;99598.71;110319;1271;22947;-81
2024/04/18 01:14:25;;;;;;;21.40;8.40;;;;;;;3.28;87.04;99600.29;110333;1271;22998;-81
2024/04/18 01:17:24;;;;;;;20.80;8.10;;;;;;;3.26;87.06;99601.41;110688;1270;22220;-83
2024/04/18 01:20:14;;;;;;;23.20;9.10;;;;;;;3.25;86.99;99602.85;110706;1267;22444;-81
2024/04/18 01:23:04;;;;;;;20.90;8.30;;;;;;;3.26;87.12;99600.13;108635;1268;24373;-81
2024/04/18 01:26:12;;;;;;;22.20;8.40;;;;;;;3.26;87.35;99600.55;108080;1258;22543;-81
2024/04/18 01:29:02;;;;;;;20.40;8.30;;;;;;;3.26;87.56;99601.41;108315;1273;22536;-81
2024/04/18 01:31:56;;;;;;;18.30;8.50;;;;;;;3.26;87.59;99598.27;108359;1268;24348;-81
2024/04/18 01:34:45;;;;;;;;;;;;;;;3.27;87.73;99600.43;108437;1267;22534;-81
2024/04/18 01:37:38;;;;;;;16.50;6.90;;;;;;;3.25;87.98;99603.41;108330;1268;24374;-81
2024/04/18 01:40:37;;;;;;;13.20;5.00;;;;;;;3.21;88.59;99606.46;108060;1267;25280;-81
2024/04/18 01:43:47;;;;;;;14.90;6.00;;;;;;;3.15;88.72;99609.98;108241;1255;22538;-81
2024/04/18 01:46:56;;;;;;;16.80;6.30;;;;;;;3.11;88.92;99614.59;108156;1265;25519;-81
2024/04/18 01:49:53;;;;;;;16.50;6.50;;;;;;;3.07;89.34;99617.34;108123;1273;22544;-81
2024/04/18 01:52:43;;;;;;;16.20;6.30;;;;;;;3.03;89.29;99618.73;108230;1273;22580;-81
2024/04/18 01:55:34;;;;;;;16.70;4.70;;;;;;;2.99;89.57;99620.04;108133;1267;22538;-81
2024/04/18 01:58:45;;;;;;;15.50;5.30;;;;;;;2.94;89.76;99623.90;108380;1273;22582;-81
2024/04/18 02:01:35;;;;;;;18.30;5.70;;;;;;;2.91;90.28;99629.44;108219;1267;22654;-82
2024/04/18 02:04:25;;;;;;;15.70;4.20;;;;;;;2.88;90.41;99625.82;108391;1273;22663;-81
2024/04/18 02:07:16;;;;;;;15.50;5.00;;;;;;;2.89;90.47;99629.27;108157;1266;25224;-82
2024/04/18 02:10:26;;;;;;;15.90;5.40;;;;;;;2.91;90.76;99630.38;108183;1273;24348;-81
2024/04/18 02:13:25;;;;;;;16.90;5.60;;;;;;;2.93;91.11;99628.27;108204;1266;23132;-81
2024/04/18 02:16:14;;;;;;;;;;;;;;;2.96;91.54;99628.43;108114;1273;23900;-81
2024/04/18 02:19:31;;;;;;;15.50;5.50;;;;;;;2.97;91.83;99629.63;108186;1266;23396;-80
2024/04/18 02:22:22;;;;;;;16.20;4.80;;;;;;;2.98;92.02;99627.93;108006;1266;25337;-82
2024/04/18 02:25:32;;;;;;;17.80;6.40;;;;;;;3.00;92.18;99626.45;108362;1274;22652;-81
2024/04/18 02:28:22;;;;;;;16.50;5.50;;;;;;;3.03;92.49;99625.59;108340;1266;22601;-81
2024/04/18 02:31:32;;;;;;;16.20;5.40;;;;;;;3.06;92.42;99624.86;107972;1273;22754;-81
2024/04/18 02:34:22;;;;;;;;;;;;;;;3.08;92.45;99619.29;108105;1274;22644;-81
2024/04/18 02:37:15;;;;;;;16.30;5.20;;;;;;;3.10;92.51;99617.21;108010;1266;24465;-82
2024/04/18 02:40:06;;;;;;;17.20;5.80;;;;;;;3.12;92.60;99616.86;108246;1266;23662;-82
2024/04/18 02:43:02;;;;;;;14.90;5.00;;;;;;;3.12;92.66;99615.67;108000;1274;23217;-80
2024/04/18 02:45:56;;;;;;;14.70;4.60;;;;;;;3.11;92.69;99620.41;108027;1274;23893;-81
2024/04/18 02:48:55;;;;;;;19.80;5.50;;;;;;;3.10;92.54;99619.21;107949;1274;22763;-81
2024/04/18 02:51:49;;;;;;;15.80;5.10;;;;;;;3.09;92.48;99622.69;108237;1274;22566;-81
2024/04/18 02:54:59;;;;;;;16.40;6.10;;;;;;;3.08;92.52;99626.60;107962;1274;25668;-80
2024/04/18 02:57:50;;;;;;;20.70;5.70;;;;;;;3.05;92.54;99627.09;108362;1274;23142;-81
2024/04/18 03:00:40;;;;;;;11.70;4.50;;;;;;;3.04;92.50;99628.95;107929;1274;23588;-81
2024/04/18 03:03:34;;;;;;;13.20;4.00;;;;;;;3.00;92.54;99627.89;108301;1273;22605;-81
2024/04/18 03:06:27;;;;;;;12.80;4.40;;;;;;;2.95;92.53;99632.52;108224;1270;26210;-81
2024/04/18 03:09:17;;;;;;;14.20;4.90;;;;;;;2.95;92.58;99632.20;108457;1258;26599;-81
2024/04/18 03:12:17;;;;;;;15.30;4.30;;;;;;;2.93;92.63;99632.65;108346;1270;22630;-82
2024/04/18 03:15:09;;;;;;;15.70;5.00;;;;;;;2.93;92.65;99638.04;108215;1259;22565;-81
2024/04/18 03:18:25;;;;;;;11.40;3.80;;;;;;;2.93;92.76;99640.64;108587;1268;22515;-81
2024/04/18 03:21:29;;;;;;;16.00;5.40;;;;;;;2.92;92.86;99643.88;108416;1269;22537;-81
2024/04/18 03:24:38;;;;;;;;;;;;;;;2.93;93.12;99647.25;108551;1273;22641;-81
2024/04/18 03:27:29;;;;;;;12.90;4.10;;;;;;;2.92;92.97;99647.19;108263;1273;24446;-81
2024/04/18 03:30:19;;;;;;;12.90;3.30;;;;;;;2.93;93.11;99647.79;108341;1268;23380;-82
2024/04/18 03:33:27;;;;;;;14.80;4.90;;;;;;;2.93;93.35;99645.75;108077;1270;22662;-79
2024/04/18 03:36:40;;;;;;;;;;;;;;;2.94;93.45;99647.27;108521;1257;22861;-87
2024/04/18 03:40:11;;;;;;;13.10;4.40;;;;;;;2.96;93.50;99647.55;108825;1274;24213;-86
2024/04/18 03:43:45;;;;;;;14.00;4.30;;;;;;;2.99;93.63;99649.66;109352;1273;22544;-87
2024/04/18 03:46:58;;;;;;;12.30;3.60;;;;;;;3.01;93.75;99653.05;110791;1273;22211;-87
2024/04/18 03:50:13;;;;;;;12.60;3.60;;;;;;;3.03;93.83;99655.20;110767;1273;22116;-86
2024/04/18 03:53:09;;;;;;;11.70;3.60;;;;;;;3.06;93.86;99655.41;110302;1268;25414;-86
2024/04/18 03:56:32;;;;;;;12.80;3.70;;;;;;;3.11;93.93;99657.95;110757;1267;22899;-88
2024/04/18 03:59:30;;;;;;;10.70;3.50;;;;;;;3.14;93.91;99659.55;110795;1273;22201;-88
2024/04/18 04:02:27;;;;;;;10.50;3.30;;;;;;;3.18;94.00;99654.58;110743;1273;22205;-88
2024/04/18 04:05:22;;;;;;;17.60;4.20;;;;;;;3.21;94.02;99657.15;109052;1270;22668;-86
2024/04/18 04:08:28;;;;;;;10.50;3.30;;;;;;;3.24;94.20;99659.80;110364;1271;22579;-88
2024/04/18 04:11:37;;;;;;;11.50;3.50;;;;;;;3.25;94.42;99663.70;108697;1268;26494;-87
2024/04/18 04:14:31;;;;;;;11.00;2.80;;;;;;;3.26;94.52;99662.09;108197;1271;22546;-86
2024/04/18 04:17:26;;;;;;;10.90;3.00;;;;;;;3.27;94.64;99667.56;110367;1274;22556;-85
2024/04/18 04:20:38;;;;;;;9.40;3.10;;;;;;;3.29;94.64;99672.08;108364;1270;22578;-86
2024/04/18 04:23:36;;;;;;;9.60;2.50;;;;;;;3.32;95.02;99676.11;109030;1273;22563;-85
2024/04/18 04:26:33;;;;;;;8.40;2.60;;;;;;;3.33;95.11;99681.52;108700;1268;22563;-87
2024/04/18 04:30:03;;;;;;;11.00;3.20;;;;;;;3.34;95.32;99685.27;110882;1267;22225;-87
2024/04/18 04:33:44;;;;;;;10.40;3.10;;;;;;;3.34;95.63;99692.91;110509;1273;22591;-89
2024/04/18 04:37:29;;;;;;;8.10;2.10;;;;;;;3.34;95.87;99698.88;110619;1266;22535;-88
